Archival Weather

Chicago O'Hare International

Chicago, Illinois (KORD)

Report from: Monday, December 26, 2022 7:51 PM CST
Current time: Friday, June 21, 2024 2:28 AM CDT

Current weather – Weather history – Daily summaries
Weather forecast

Temperature-8.9°C (16.0°F)
Wind chill-14.8°C (5.3°F)
Dew point-13.3°C (8.1°F)
Winds 7 kts (3.6 m/s, 8.1 mph) Northwest (310°)
Visibility10 mi. (16.1 km)
Clouds Few clouds 4,000 ft. (1,219 m)
Scattered clouds 6,500 ft. (1,981 m)
Altimeter30.25 in.Hg (1024 mB)
Relative humidity70 %
Density altitude-3,365 ft. (-1,026 m)
Sea-level pressure102.6 kPa (1026 mB, 30.29 in.Hg)
Remarks System requires maintenance
Automated weather observing station with precipitation discriminator
Flight conditions Visual Meteorological Conditions
Raw dataKORD 270151Z 31007KT 10SM FEW040 SCT065 M09/M13 A3025 RMK AO2 SLP256 T10891133 $
An error has occurred. This application may no longer respond until reloaded. Reload 🗙